createdAt,value
2018-06-21T00:01:31.647Z,21.67
2018-06-21T00:06:26.191Z,21.68
2018-06-21T00:11:20.747Z,21.58
2018-06-21T00:16:15.111Z,21.48
2018-06-21T00:21:09.700Z,21.14
2018-06-21T00:26:04.285Z,21.12
2018-06-21T00:30:58.857Z,20.92
2018-06-21T00:35:53.103Z,21.11
2018-06-21T00:40:47.645Z,21.16
2018-06-21T00:45:42.243Z,21.16
2018-06-21T00:50:36.799Z,21.26
2018-06-21T00:55:48.111Z,20.90
2018-06-21T01:00:42.795Z,21.03
2018-06-21T01:05:37.403Z,21.03
2018-06-21T01:10:31.935Z,20.98
2018-06-21T01:15:26.478Z,20.93
2018-06-21T01:20:21.983Z,20.82
2018-06-21T01:25:17.444Z,20.85
2018-06-21T01:30:12.000Z,20.56
2018-06-21T01:35:06.909Z,20.42
2018-06-21T01:40:01.464Z,20.28
2018-06-21T01:44:55.980Z,20.17
2018-06-21T01:49:50.585Z,20.37
2018-06-21T01:54:45.130Z,20.51
2018-06-21T01:59:39.690Z,20.62
2018-06-21T02:04:34.284Z,20.57
2018-06-21T02:09:28.881Z,20.49
2018-06-21T02:14:23.502Z,20.22
2018-06-21T02:19:18.071Z,20.03
2018-06-21T02:24:12.641Z,20.27
2018-06-21T02:29:07.330Z,20.13
2018-06-21T02:34:01.845Z,20.06
2018-06-21T02:38:56.435Z,19.85
2018-06-21T02:43:50.952Z,19.70
2018-06-21T02:48:45.529Z,19.97
2018-06-21T02:53:40.111Z,19.90
2018-06-21T02:58:34.643Z,19.97
2018-06-21T03:03:29.208Z,20.05
2018-06-21T03:08:23.750Z,19.99
2018-06-21T03:13:18.391Z,19.87
2018-06-21T03:18:12.930Z,19.84
2018-06-21T03:23:07.480Z,19.80
2018-06-21T03:28:02.033Z,19.75
2018-06-21T03:32:59.544Z,19.66
2018-06-21T03:37:54.138Z,19.52
2018-06-21T03:42:48.704Z,19.56
2018-06-21T03:47:43.267Z,19.43
2018-06-21T03:52:37.846Z,19.63
2018-06-21T03:57:32.457Z,19.66
2018-06-21T04:02:28.289Z,19.51
2018-06-21T04:07:22.808Z,19.48
2018-06-21T04:12:17.324Z,19.58
2018-06-21T04:17:11.878Z,19.65
2018-06-21T04:22:06.407Z,19.76
2018-06-21T04:27:00.949Z,19.95
2018-06-21T04:31:55.519Z,20.01
2018-06-21T04:36:50.913Z,20.54
2018-06-21T04:41:45.503Z,20.90
2018-06-21T04:46:40.066Z,21.41
2018-06-21T04:51:34.649Z,22.01
2018-06-21T04:56:29.206Z,22.61
2018-06-21T05:01:23.808Z,23.00
2018-06-21T05:06:18.404Z,23.38
2018-06-21T05:11:12.651Z,23.81
2018-06-21T05:16:07.260Z,24.10
2018-06-21T05:21:01.795Z,23.98
2018-06-21T05:25:56.506Z,24.47
2018-06-21T05:30:51.061Z,24.56
2018-06-21T05:40:50.515Z,24.80
2018-06-21T05:45:45.049Z,25.29
2018-06-21T05:50:39.679Z,25.34
2018-06-21T05:55:34.926Z,24.91
2018-06-21T06:00:29.731Z,24.94
2018-06-21T06:05:23.972Z,24.84
2018-06-21T06:10:18.525Z,24.76
2018-06-21T06:15:13.066Z,24.66
2018-06-21T06:20:07.760Z,24.82
2018-06-21T06:25:02.259Z,24.05
2018-06-21T06:29:56.796Z,23.90
2018-06-21T06:34:51.371Z,23.68
2018-06-21T06:39:45.633Z,24.15
2018-06-21T06:44:40.194Z,24.73
2018-06-21T06:49:34.744Z,24.57
2018-06-21T06:54:29.341Z,25.11
2018-06-21T06:59:23.855Z,25.76
2018-06-21T07:04:18.462Z,26.27
2018-06-21T07:09:13.049Z,26.54
2018-06-21T07:14:07.797Z,26.49
2018-06-21T07:19:02.647Z,27.09
2018-06-21T07:23:57.208Z,27.06
2018-06-21T07:28:51.774Z,27.53
2018-06-21T07:33:46.457Z,27.98
2018-06-21T07:38:41.017Z,27.49
2018-06-21T07:43:35.571Z,27.74
2018-06-21T07:48:30.120Z,28.05
2018-06-21T07:53:24.643Z,28.10
2018-06-21T07:58:19.557Z,28.20
2018-06-21T08:03:14.107Z,28.61
2018-06-21T08:08:08.710Z,28.73
2018-06-21T08:13:03.331Z,28.86
2018-06-21T08:17:57.968Z,29.06
2018-06-21T08:22:52.524Z,28.47
2018-06-21T08:27:47.118Z,27.50
2018-06-21T08:32:43.553Z,28.57
2018-06-21T08:37:38.142Z,28.90
2018-06-21T08:42:32.758Z,28.77
2018-06-21T08:47:27.285Z,28.78
2018-06-21T08:52:21.827Z,29.34
2018-06-21T08:57:16.386Z,29.58
2018-06-21T09:02:11.230Z,29.99
2018-06-21T09:07:05.838Z,29.57
2018-06-21T09:12:00.477Z,29.69
2018-06-21T09:16:55.120Z,30.01
2018-06-21T09:21:49.755Z,30.44
2018-06-21T09:26:44.466Z,30.49
2018-06-21T09:31:39.130Z,30.35
2018-06-21T09:36:40.226Z,30.09
2018-06-21T09:41:39.854Z,29.61
2018-06-21T09:46:39.524Z,28.77
2018-06-21T09:51:34.180Z,28.10
2018-06-21T09:56:28.816Z,28.67
2018-06-21T10:01:23.399Z,28.83
2018-06-21T10:06:18.080Z,29.90
2018-06-21T10:11:12.625Z,30.00
2018-06-21T10:16:07.183Z,30.67
2018-06-21T10:21:01.822Z,30.06
2018-06-21T10:25:56.396Z,30.34
2018-06-21T10:30:51.014Z,28.90
2018-06-21T10:35:45.588Z,28.60
2018-06-21T10:40:40.221Z,28.34
2018-06-21T10:45:34.803Z,29.60
2018-06-21T10:50:29.411Z,30.52
2018-06-21T10:55:24.023Z,30.64
2018-06-21T11:00:18.698Z,30.83
2018-06-21T11:05:13.363Z,31.40
2018-06-21T11:10:08.016Z,31.04
2018-06-21T11:15:02.599Z,31.15
2018-06-21T11:19:57.154Z,31.54
2018-06-21T11:24:52.075Z,30.86
2018-06-21T11:29:46.592Z,30.76
2018-06-21T11:34:41.221Z,30.94
2018-06-21T11:39:35.803Z,31.68
2018-06-21T11:44:30.346Z,32.36
2018-06-21T11:49:24.902Z,31.61
2018-06-21T11:54:19.459Z,31.46
2018-06-21T11:59:14.057Z,31.29
2018-06-21T12:04:08.743Z,31.59
2018-06-21T12:09:03.447Z,31.60
2018-06-21T12:13:57.976Z,31.46
2018-06-21T12:18:52.646Z,31.61
2018-06-21T12:23:47.281Z,30.94
2018-06-21T12:28:41.939Z,30.85
2018-06-21T12:33:36.507Z,30.72
2018-06-21T12:38:31.086Z,30.35
2018-06-21T12:43:25.735Z,30.53
2018-06-21T12:48:20.299Z,30.51
2018-06-21T12:53:14.558Z,30.83
2018-06-21T12:58:09.163Z,30.61
2018-06-21T13:03:03.737Z,30.56
2018-06-21T13:07:58.280Z,30.35
2018-06-21T13:13:10.354Z,30.31
2018-06-21T13:18:04.973Z,30.53
2018-06-21T13:22:59.552Z,30.64
2018-06-21T13:27:54.123Z,30.17
2018-06-21T13:32:48.694Z,30.10
2018-06-21T13:37:43.284Z,30.06
2018-06-21T13:42:37.876Z,30.47
2018-06-21T13:47:32.500Z,30.45
2018-06-21T13:52:27.063Z,30.42
2018-06-21T13:57:21.700Z,30.07
2018-06-21T14:02:16.362Z,30.36
2018-06-21T14:07:10.987Z,30.11
2018-06-21T14:12:05.629Z,29.80
2018-06-21T14:17:00.236Z,30.04
2018-06-21T14:21:54.879Z,29.74
2018-06-21T14:26:49.522Z,29.49
2018-06-21T14:31:44.178Z,28.90
2018-06-21T14:36:38.755Z,29.33
2018-06-21T14:41:33.379Z,29.21
2018-06-21T14:46:28.006Z,29.32
2018-06-21T14:51:22.754Z,29.11
2018-06-21T14:56:17.367Z,29.09
2018-06-21T15:01:12.032Z,28.94
2018-06-21T15:06:06.813Z,28.95
2018-06-21T15:11:01.396Z,29.30
2018-06-21T15:15:56.062Z,29.32
2018-06-21T15:20:50.702Z,29.23
2018-06-21T15:25:45.316Z,29.08
2018-06-21T15:30:39.921Z,29.57
2018-06-21T15:35:34.571Z,29.06
2018-06-21T15:40:29.197Z,28.88
2018-06-21T15:45:23.836Z,28.28
2018-06-21T15:50:18.491Z,28.63
2018-06-21T15:55:13.056Z,28.92
2018-06-21T16:00:07.808Z,29.06
2018-06-21T16:05:02.379Z,29.30
2018-06-21T16:09:56.922Z,28.87
2018-06-21T16:14:51.531Z,28.55
2018-06-21T16:19:46.103Z,28.62
2018-06-21T16:24:40.744Z,28.25
2018-06-21T16:29:35.329Z,28.25
2018-06-21T16:34:29.962Z,28.01
2018-06-21T16:39:24.532Z,27.97
2018-06-21T16:44:19.094Z,28.12
2018-06-21T16:49:13.748Z,27.60
2018-06-21T16:54:08.350Z,27.76
2018-06-21T16:59:03.052Z,27.79
2018-06-21T17:03:57.710Z,27.77
2018-06-21T17:08:52.385Z,28.02
2018-06-21T17:13:47.073Z,28.04
2018-06-21T17:18:42.342Z,27.65
2018-06-21T17:23:36.968Z,27.42
2018-06-21T17:28:31.550Z,27.43
2018-06-21T17:33:26.102Z,27.55
2018-06-21T17:38:20.758Z,26.72
2018-06-21T17:43:15.554Z,26.54
2018-06-21T17:48:10.252Z,26.19
2018-06-21T17:53:04.873Z,26.01
2018-06-21T17:57:59.449Z,25.98
2018-06-21T18:02:54.026Z,25.94
2018-06-21T18:07:48.561Z,25.68
2018-06-21T18:12:43.275Z,25.75
2018-06-21T18:17:37.957Z,25.48
2018-06-21T18:22:32.659Z,25.03
2018-06-21T18:27:27.447Z,24.92
2018-06-21T18:32:22.066Z,24.91
2018-06-21T18:37:16.741Z,24.98
2018-06-21T18:42:11.503Z,24.91
2018-06-21T18:47:07.501Z,24.83
2018-06-21T18:52:02.129Z,24.53
2018-06-21T18:56:56.752Z,24.42
2018-06-21T19:01:51.475Z,24.38
2018-06-21T19:06:51.190Z,24.36
2018-06-21T19:11:50.764Z,24.00
2018-06-21T19:16:45.625Z,24.09
2018-06-21T19:21:40.295Z,23.80
2018-06-21T19:26:35.572Z,23.84
2018-06-21T19:31:30.190Z,23.85
2018-06-21T19:36:24.831Z,23.82
2018-06-21T19:41:19.870Z,23.81
2018-06-21T19:46:14.707Z,23.83
2018-06-21T19:51:09.412Z,23.61
2018-06-21T19:56:04.138Z,23.34
2018-06-21T20:00:58.735Z,23.20
2018-06-21T20:05:53.320Z,23.08
2018-06-21T20:10:51.990Z,23.19
2018-06-21T20:15:51.320Z,23.15
2018-06-21T20:20:45.972Z,23.09
2018-06-21T20:25:40.621Z,23.14
2018-06-21T20:30:35.288Z,23.16
2018-06-21T20:35:29.947Z,23.32
2018-06-21T20:40:24.568Z,22.99
2018-06-21T20:45:19.214Z,22.71
2018-06-21T20:50:13.847Z,22.96
2018-06-21T20:55:08.458Z,22.90
2018-06-21T21:00:03.151Z,22.40
2018-06-21T21:05:15.698Z,22.63
2018-06-21T21:10:13.470Z,22.74
2018-06-21T21:15:09.212Z,22.60
2018-06-21T21:20:04.681Z,22.48
2018-06-21T21:24:59.330Z,22.57
2018-06-21T21:29:54.031Z,22.43
2018-06-21T21:34:48.623Z,21.73
2018-06-21T21:39:43.150Z,21.40
2018-06-21T21:44:37.765Z,21.34
2018-06-21T21:49:32.415Z,21.13
2018-06-21T21:54:27.240Z,20.99
2018-06-21T21:59:21.946Z,20.59
2018-06-21T22:04:16.615Z,20.72
2018-06-21T22:09:11.207Z,20.50
2018-06-21T22:14:06.199Z,20.49
2018-06-21T22:19:00.796Z,20.37
2018-06-21T22:23:55.535Z,20.60
2018-06-21T22:33:52.039Z,20.07
2018-06-21T22:38:46.562Z,20.02
2018-06-21T22:43:41.174Z,20.06
2018-06-21T22:48:36.096Z,20.35
2018-06-21T22:53:30.682Z,20.23
2018-06-21T22:58:25.270Z,20.13
2018-06-21T23:03:19.907Z,19.66
2018-06-21T23:08:14.563Z,19.58
2018-06-21T23:13:09.260Z,19.93
2018-06-21T23:18:03.835Z,19.72
2018-06-21T23:22:58.487Z,19.57
2018-06-21T23:27:53.138Z,19.77
2018-06-21T23:32:47.769Z,20.03
2018-06-21T23:37:42.408Z,19.99
2018-06-21T23:42:37.019Z,19.65
2018-06-21T23:47:31.595Z,19.52
2018-06-21T23:52:26.235Z,19.55
2018-06-21T23:57:20.528Z,19.47
